KSDF Airport Diagram

We have created a template for each of the higher traffic airports in the vZID airspace. They include KCMH, KCRW, KCVG, KDAY, KIND, KLEX and KSDF. You wil find usefull information including the airport diagram, weather, and specific airport procedures.

KSDF Weather

[Source: ADDS]
METAR
KSDF 172156Z 26008KT 10SM SCT045 SCT060 BKN075 BKN250 32/23 A2993 RMK AO2 RAE03 SLP128 CB DSNT NE AND E P0000 T03170228 =
KSDF 172151Z 1722/1824 27008KT P6SM VCSH SCT030 BKN040 FM180300 24004KT P6SM SCT050 FM181000 VRB03KT 6SM BR SCT040 FM181300 22006KT P6SM SCT050
TAF
KSDF 172151Z 1722/1824 27008KT P6SM VCSH SCT030 BKN040 FM180300 24004KT P6SM SCT050 FM181000 VRB03KT 6SM BR SCT040 FM181300 22006KT P6SM SCT050 =

KSDF Operations

Calm Wind Configuration is runways 17L and 17R.

Runway 17L typically departs north and east.

Runway 17R typicall departs south and west.

 

JSN Epic template designed by JoomlaShine.com